createdAt,value
2018-09-26T00:01:27.253Z,31.2
2018-09-26T00:11:26.933Z,37.1
2018-09-26T00:21:29.468Z,35.3
2018-09-26T00:31:27.183Z,36.7
2018-09-26T00:41:28.139Z,33.8
2018-09-26T00:51:26.897Z,43.9
2018-09-26T01:01:26.696Z,43.4
2018-09-26T01:11:26.408Z,37.8
2018-09-26T01:21:26.498Z,34.1
2018-09-26T01:31:27.192Z,40.6
2018-09-26T01:41:27.552Z,42.3
2018-09-26T01:51:26.764Z,40.3
2018-09-26T02:01:26.932Z,38.7
2018-09-26T02:11:26.824Z,45.0
2018-09-26T02:21:26.883Z,41.0
2018-09-26T02:31:26.639Z,37.9
2018-09-26T02:41:26.563Z,41.9
2018-09-26T02:51:29.333Z,42.8
2018-09-26T03:01:27.093Z,48.3
2018-09-26T03:11:26.819Z,45.4
2018-09-26T03:21:27.925Z,41.5
2018-09-26T03:31:26.580Z,45.6
2018-09-26T03:41:27.669Z,42.7
2018-09-26T03:51:27.152Z,37.4
2018-09-26T04:01:27.273Z,36.4
2018-09-26T04:11:27.553Z,41.0
2018-09-26T04:21:26.534Z,38.9
2018-09-26T04:31:27.192Z,39.7
2018-09-26T04:41:29.769Z,39.6
2018-09-26T04:51:26.470Z,39.7
2018-09-26T05:01:27.198Z,35.4
2018-09-26T05:11:26.920Z,38.1
2018-09-26T05:21:27.684Z,34.9
2018-09-26T05:31:27.316Z,43.7
2018-09-26T05:41:27.281Z,38.2
2018-09-26T05:51:28.122Z,41.6
2018-09-26T06:01:26.764Z,37.4
2018-09-26T06:11:26.663Z,34.1
2018-09-26T06:21:26.636Z,32.0
2018-09-26T06:31:29.338Z,24.2
2018-09-26T06:41:27.065Z,29.8
2018-09-26T06:51:27.669Z,24.9
2018-09-26T07:01:26.411Z,30.9
2018-09-26T07:11:27.758Z,16.8
2018-09-26T07:21:26.789Z,16.8
2018-09-26T07:31:26.692Z,21.9
2018-09-26T07:41:27.649Z,20.5
2018-09-26T07:51:27.129Z,12.7
2018-09-26T08:01:27.843Z,14.2
2018-09-26T08:11:27.194Z,15.1
2018-09-26T08:21:27.266Z,11.9
2018-09-26T08:31:27.387Z,9.9
2018-09-26T08:41:27.701Z,13.3
2018-09-26T08:51:26.560Z,9.5
2018-09-26T09:01:27.651Z,6.7
2018-09-26T09:11:27.733Z,4.7
2018-09-26T09:21:27.049Z,5.2
2018-09-26T09:31:27.049Z,6.3
2018-09-26T09:41:28.322Z,10.5
2018-09-26T09:51:27.698Z,7.4
2018-09-26T10:01:27.416Z,5.0
2018-09-26T10:11:27.850Z,5.6
2018-09-26T10:21:26.860Z,5.2
2018-09-26T10:31:27.000Z,7.8
2018-09-26T10:41:27.368Z,5.4
2018-09-26T10:51:27.867Z,2.7
2018-09-26T11:01:26.626Z,1.3
2018-09-26T11:11:26.847Z,2.4
2018-09-26T11:21:30.859Z,1.5
2018-09-26T11:31:27.480Z,3.9
2018-09-26T11:41:27.711Z,3.0
2018-09-26T11:51:27.328Z,1.9
2018-09-26T12:01:27.721Z,3.1
2018-09-26T12:11:26.579Z,2.3
2018-09-26T12:21:31.624Z,2.7
2018-09-26T12:31:28.182Z,3.2
2018-09-26T12:41:27.519Z,3.5
2018-09-26T12:51:27.312Z,3.0
2018-09-26T13:01:28.925Z,3.2
2018-09-26T13:11:26.821Z,5.7
2018-09-26T13:21:27.145Z,5.2
2018-09-26T13:31:27.112Z,4.3
2018-09-26T13:41:27.839Z,4.6
2018-09-26T13:51:26.241Z,3.8
2018-09-26T14:01:27.834Z,2.8
2018-09-26T14:11:29.100Z,7.4
2018-09-26T14:21:27.420Z,4.3
2018-09-26T14:31:28.261Z,3.6
2018-09-26T14:41:27.413Z,4.1
2018-09-26T14:51:26.452Z,2.4
2018-09-26T15:01:28.335Z,3.1
2018-09-26T15:11:27.772Z,4.0
2018-09-26T15:21:25.696Z,4.7
2018-09-26T15:31:26.767Z,7.4
2018-09-26T15:41:26.743Z,4.2
2018-09-26T15:51:27.237Z,3.7
2018-09-26T16:01:28.242Z,5.7
2018-09-26T16:11:27.776Z,5.1
2018-09-26T16:21:26.876Z,5.6
2018-09-26T16:31:27.875Z,4.3
2018-09-26T16:41:28.004Z,5.1
2018-09-26T16:51:25.808Z,6.6
2018-09-26T17:01:27.619Z,6.2
2018-09-26T17:11:27.907Z,9.8
2018-09-26T17:21:27.275Z,8.4
2018-09-26T17:31:27.457Z,8.3
2018-09-26T17:41:28.785Z,12.2
2018-09-26T17:51:27.025Z,15.4
2018-09-26T18:01:27.027Z,16.9
2018-09-26T18:11:27.384Z,12.1
2018-09-26T18:21:27.382Z,11.3
2018-09-26T18:31:28.405Z,11.9
2018-09-26T18:41:27.905Z,13.8
2018-09-26T18:51:26.948Z,12.3
2018-09-26T19:01:27.321Z,13.3
2018-09-26T19:11:27.093Z,14.2
2018-09-26T19:21:27.242Z,12.7
2018-09-26T19:31:27.457Z,14.7
2018-09-26T19:41:28.532Z,10.3
2018-09-26T19:51:27.987Z,11.9
2018-09-26T20:01:26.796Z,10.0
2018-09-26T20:11:27.291Z,11.7
2018-09-26T20:21:27.342Z,21.7
2018-09-26T20:31:27.161Z,13.0
2018-09-26T20:41:29.320Z,13.3
2018-09-26T20:51:28.532Z,60.9
2018-09-26T21:01:27.374Z,17.6
2018-09-26T21:11:28.109Z,16.5
2018-09-26T21:21:27.353Z,18.3
2018-09-26T21:31:27.830Z,20.9
2018-09-26T21:41:28.140Z,18.2
2018-09-26T21:51:27.252Z,21.9
2018-09-26T22:01:26.993Z,19.8
2018-09-26T22:11:28.144Z,33.0
2018-09-26T22:21:28.663Z,27.1
2018-09-26T22:31:26.483Z,24.7
2018-09-26T22:41:27.566Z,20.7
2018-09-26T22:51:27.409Z,17.8
2018-09-26T23:01:27.681Z,14.0
2018-09-26T23:11:27.886Z,18.7
2018-09-26T23:21:27.425Z,13.7
2018-09-26T23:31:28.133Z,15.2
2018-09-26T23:41:27.271Z,17.4
2018-09-26T23:51:27.361Z,19.1
